sensor_id;sensor_type;location;lat;lon;timestamp;pressure;altitude;pressure_sealevel;temperature;humidity
4346;BME280;2186;49.866;7.986;2023-02-01T00:02:10;100802.47;;;7.28;100.00
4346;BME280;2186;49.866;7.986;2023-02-01T00:04:36;100805.13;;;7.28;100.00
4346;BME280;2186;49.866;7.986;2023-02-01T00:07:03;100799.78;;;7.34;100.00
4346;BME280;2186;49.866;7.986;2023-02-01T00:09:29;100813.09;;;7.19;100.00
4346;BME280;2186;49.866;7.986;2023-02-01T00:11:56;100803.28;;;7.36;100.00
4346;BME280;2186;49.866;7.986;2023-02-01T00:14:25;100805.06;;;7.34;100.00
4346;BME280;2186;49.866;7.986;2023-02-01T00:16:52;100792.66;;;7.39;100.00
4346;BME280;2186;49.866;7.986;2023-02-01T00:19:18;100799.72;;;7.43;100.00
4346;BME280;2186;49.866;7.986;2023-02-01T00:21:44;100795.41;;;7.30;100.00
4346;BME280;2186;49.866;7.986;2023-02-01T00:24:11;100793.66;;;7.25;100.00
4346;BME280;2186;49.866;7.986;2023-02-01T00:26:42;100786.47;;;7.47;100.00
4346;BME280;2186;49.866;7.986;2023-02-01T00:29:13;100797.00;;;7.50;100.00
4346;BME280;2186;49.866;7.986;2023-02-01T00:31:39;100786.47;;;7.45;100.00
4346;BME280;2186;49.866;7.986;2023-02-01T00:34:06;100786.41;;;7.51;100.00
4346;BME280;2186;49.866;7.986;2023-02-01T00:36:33;100780.25;;;7.49;100.00
4346;BME280;2186;49.866;7.986;2023-02-01T00:38:59;100783.75;;;7.51;100.00
4346;BME280;2186;49.866;7.986;2023-02-01T00:41:26;100791.88;;;7.31;100.00
4346;BME280;2186;49.866;7.986;2023-02-01T00:43:53;100791.84;;;7.34;100.00
4346;BME280;2186;49.866;7.986;2023-02-01T00:46:20;100788.16;;;7.55;100.00
4346;BME280;2186;49.866;7.986;2023-02-01T00:48:48;100784.69;;;7.47;100.00
4346;BME280;2186;49.866;7.986;2023-02-01T00:51:17;100785.50;;;7.55;100.00
4346;BME280;2186;49.866;7.986;2023-02-01T00:53:44;100791.69;;;7.54;100.00
4346;BME280;2186;49.866;7.986;2023-02-01T00:56:11;100784.63;;;7.56;100.00
4346;BME280;2186;49.866;7.986;2023-02-01T00:58:38;100791.56;;;7.66;100.00
4346;BME280;2186;49.866;7.986;2023-02-01T01:01:09;100781.16;;;7.47;100.00
4346;BME280;2186;49.866;7.986;2023-02-01T01:03:38;100781.13;;;7.51;100.00
4346;BME280;2186;49.866;7.986;2023-02-01T01:06:08;100774.91;;;7.54;100.00
4346;BME280;2186;49.866;7.986;2023-02-01T01:08:35;100764.44;;;7.45;100.00
4346;BME280;2186;49.866;7.986;2023-02-01T01:11:11;100774.91;;;7.54;100.00
4346;BME280;2186;49.866;7.986;2023-02-01T01:13:37;100773.25;;;7.43;100.00
4346;BME280;2186;49.866;7.986;2023-02-01T01:16:06;100776.81;;;7.42;100.00
4346;BME280;2186;49.866;7.986;2023-02-01T01:18:34;100775.13;;;7.31;100.00
4346;BME280;2186;49.866;7.986;2023-02-01T01:21:01;100768.00;;;7.37;100.00
4346;BME280;2186;49.866;7.986;2023-02-01T01:23:28;100772.56;;;7.19;100.00
4346;BME280;2186;49.866;7.986;2023-02-01T01:25:54;100768.84;;;7.46;100.00
4346;BME280;2186;49.866;7.986;2023-02-01T01:28:21;100768.13;;;7.27;100.00
4346;BME280;2186;49.866;7.986;2023-02-01T01:30:47;100773.28;;;7.40;100.00
4346;BME280;2186;49.866;7.986;2023-02-01T01:33:14;100762.78;;;7.30;100.00
4346;BME280;2186;49.866;7.986;2023-02-01T01:35:41;100760.00;;;7.48;100.00
4346;BME280;2186;49.866;7.986;2023-02-01T01:38:09;100762.81;;;7.27;100.00
4346;BME280;2186;49.866;7.986;2023-02-01T01:40:36;100760.09;;;7.36;100.00
4346;BME280;2186;49.866;7.986;2023-02-01T01:43:02;100770.75;;;7.24;100.00
4346;BME280;2186;49.866;7.986;2023-02-01T01:45:30;100761.81;;;7.43;100.00
4346;BME280;2186;49.866;7.986;2023-02-01T01:48:04;100760.84;;;7.55;100.00
4346;BME280;2186;49.866;7.986;2023-02-01T01:50:36;100753.81;;;7.49;100.00
4346;BME280;2186;49.866;7.986;2023-02-01T01:53:07;100760.84;;;7.55;100.00
4346;BME280;2186;49.866;7.986;2023-02-01T01:55:37;100760.88;;;7.47;100.00
4346;BME280;2186;49.866;7.986;2023-02-01T01:58:08;100750.34;;;7.39;100.00
4346;BME280;2186;49.866;7.986;2023-02-01T02:00:36;100745.97;;;7.38;100.00
4346;BME280;2186;49.866;7.986;2023-02-01T02:05:40;100732.78;;;7.35;100.00
4346;BME280;2186;49.866;7.986;2023-02-01T02:08:07;100736.41;;;7.22;100.00
4346;BME280;2186;49.866;7.986;2023-02-01T02:10:33;100725.72;;;7.36;100.00
4346;BME280;2186;49.866;7.986;2023-02-01T02:13:19;100720.50;;;7.30;100.00
4346;BME280;2186;49.866;7.986;2023-02-01T02:15:53;100718.63;;;7.42;100.00
4346;BME280;2186;49.866;7.986;2023-02-01T02:18:57;100709.94;;;7.28;100.00
4346;BME280;2186;49.866;7.986;2023-02-01T02:21:41;100714.41;;;7.17;100.00
4346;BME280;2186;49.866;7.986;2023-02-01T02:24:39;100709.84;;;7.34;100.00
4346;BME280;2186;49.866;7.986;2023-02-01T02:27:33;100702.78;;;7.41;100.00
4346;BME280;2186;49.866;7.986;2023-02-01T02:36:27;100712.44;;;7.42;100.00
4346;BME280;2186;49.866;7.986;2023-02-01T02:41:43;100728.44;;;7.27;100.00
4346;BME280;2186;49.866;7.986;2023-02-01T02:50:45;100736.28;;;7.37;100.00
4346;BME280;2186;49.866;7.986;2023-02-01T02:53:58;100727.47;;;7.37;100.00
4346;BME280;2186;49.866;7.986;2023-02-01T02:56:46;100732.72;;;7.41;100.00
4346;BME280;2186;49.866;7.986;2023-02-01T02:59:32;100733.66;;;7.34;100.00
4346;BME280;2186;49.866;7.986;2023-02-01T03:02:20;100724.69;;;7.51;100.00
4346;BME280;2186;49.866;7.986;2023-02-01T03:05:06;100716.84;;;7.43;100.00
4346;BME280;2186;49.866;7.986;2023-02-01T03:08:09;100719.50;;;7.41;100.00
4346;BME280;2186;49.866;7.986;2023-02-01T03:11:02;100723.84;;;7.49;100.00
4346;BME280;2186;49.866;7.986;2023-02-01T03:16:08;100719.50;;;7.43;100.00
4346;BME280;2186;49.866;7.986;2023-02-01T03:19:31;100727.47;;;7.37;100.00
4346;BME280;2186;49.866;7.986;2023-02-01T03:21:40;100722.09;;;7.46;100.00
4346;BME280;2186;49.866;7.986;2023-02-01T03:24:15;100724.81;;;7.37;100.00
4346;BME280;2186;49.866;7.986;2023-02-01T03:26:55;100718.63;;;7.42;100.00
4346;BME280;2186;49.866;7.986;2023-02-01T03:29:27;100724.03;;;7.24;100.00
4346;BME280;2186;49.866;7.986;2023-02-01T03:31:56;100724.00;;;7.30;100.00
4346;BME280;2186;49.866;7.986;2023-02-01T03:34:22;100726.69;;;7.24;100.00
4346;BME280;2186;49.866;7.986;2023-02-01T03:36:52;100711.56;;;7.40;100.00
4346;BME280;2186;49.866;7.986;2023-02-01T03:39:38;100703.78;;;7.23;100.00
4346;BME280;2186;49.866;7.986;2023-02-01T03:42:14;100698.22;;;7.55;100.00
4346;BME280;2186;49.866;7.986;2023-02-01T03:44:53;100695.84;;;7.28;100.00
4346;BME280;2186;49.866;7.986;2023-02-01T03:47:23;100695.84;;;7.23;100.00
4346;BME280;2186;49.866;7.986;2023-02-01T03:50:05;100702.84;;;7.30;100.00
4346;BME280;2186;49.866;7.986;2023-02-01T03:52:52;100695.81;;;7.26;100.00
4346;BME280;2186;49.866;7.986;2023-02-01T03:55:23;100700.13;;;7.38;100.00
4346;BME280;2186;49.866;7.986;2023-02-01T03:58:03;100701.84;;;7.43;100.00
4346;BME280;2186;49.866;7.986;2023-02-01T04:00:32;100694.91;;;7.32;100.00
4346;BME280;2186;49.866;7.986;2023-02-01T04:02:59;100695.69;;;7.45;100.00
4346;BME280;2186;49.866;7.986;2023-02-01T04:05:25;100698.41;;;7.34;100.00
4346;BME280;2186;49.866;7.986;2023-02-01T04:07:52;100700.97;;;7.43;100.00
4346;BME280;2186;49.866;7.986;2023-02-01T04:10:18;100709.94;;;7.25;100.00
4346;BME280;2186;49.866;7.986;2023-02-01T04:12:45;100706.28;;;7.41;100.00
4346;BME280;2186;49.866;7.986;2023-02-01T04:15:12;100708.94;;;7.37;100.00
4346;BME280;2186;49.866;7.986;2023-02-01T04:17:38;100704.72;;;7.19;100.00
4346;BME280;2186;49.866;7.986;2023-02-01T04:20:05;100703.88;;;7.14;100.00
4346;BME280;2186;49.866;7.986;2023-02-01T04:22:32;100702.13;;;7.10;100.00
4346;BME280;2186;49.866;7.986;2023-02-01T04:24:58;100713.53;;;7.18;100.00
4346;BME280;2186;49.866;7.986;2023-02-01T04:27:25;100709.22;;;7.05;100.00
4346;BME280;2186;49.866;7.986;2023-02-01T04:29:51;100710.03;;;7.16;100.00
4346;BME280;2186;49.866;7.986;2023-02-01T04:32:18;100697.69;;;7.12;100.00
4346;BME280;2186;49.866;7.986;2023-02-01T04:34:46;100710.88;;;7.20;100.00
4346;BME280;2186;49.866;7.986;2023-02-01T04:37:12;100718.06;;;7.02;100.00
4346;BME280;2186;49.866;7.986;2023-02-01T04:39:38;100704.78;;;7.08;100.00
4346;BME280;2186;49.866;7.986;2023-02-01T04:42:05;100703.03;;;7.06;100.00
4346;BME280;2186;49.866;7.986;2023-02-01T04:44:31;100705.72;;;7.04;100.00
4346;BME280;2186;49.866;7.986;2023-02-01T04:46:58;100705.00;;;6.79;100.00
4346;BME280;2186;49.866;7.986;2023-02-01T04:49:24;100712.91;;;6.79;100.00
4346;BME280;2186;49.866;7.986;2023-02-01T04:51:52;100714.59;;;6.91;100.00
4346;BME280;2186;49.866;7.986;2023-02-01T04:54:19;100720.84;;;6.79;100.00
4346;BME280;2186;49.866;7.986;2023-02-01T04:56:45;100730.53;;;6.79;100.00
4346;BME280;2186;49.866;7.986;2023-02-01T04:59:12;100734.03;;;6.87;100.00
4346;BME280;2186;49.866;7.986;2023-02-01T05:01:38;100729.63;;;6.81;100.00
4346;BME280;2186;49.866;7.986;2023-02-01T05:04:05;100725.22;;;6.82;100.00
4346;BME280;2186;49.866;7.986;2023-02-01T05:06:31;100726.13;;;6.86;100.00
4346;BME280;2186;49.866;7.986;2023-02-01T05:08:57;100721.47;;;7.18;100.00
4346;BME280;2186;49.866;7.986;2023-02-01T05:11:24;100713.59;;;7.09;100.00
4346;BME280;2186;49.866;7.986;2023-02-01T05:14:09;100715.38;;;7.05;100.00
4346;BME280;2186;49.866;7.986;2023-02-01T05:16:36;100711.91;;;6.99;100.00
4346;BME280;2186;49.866;7.986;2023-02-01T05:19:02;100703.09;;;7.01;100.00
4346;BME280;2186;49.866;7.986;2023-02-01T05:21:28;100711.03;;;6.95;100.00
4346;BME280;2186;49.866;7.986;2023-02-01T05:23:55;100708.34;;;7.06;100.00
4346;BME280;2186;49.866;7.986;2023-02-01T05:26:37;100698.78;;;6.90;100.00
4346;BME280;2186;49.866;7.986;2023-02-01T05:29:04;100689.91;;;7.00;100.00
4346;BME280;2186;49.866;7.986;2023-02-01T05:31:31;100692.53;;;6.98;100.00
4346;BME280;2186;49.866;7.986;2023-02-01T05:33:58;100684.56;;;7.04;100.00
4346;BME280;2186;49.866;7.986;2023-02-01T05:36:24;100682.72;;;7.12;100.00
4346;BME280;2186;49.866;7.986;2023-02-01T05:38:50;100685.47;;;7.02;100.00
4346;BME280;2186;49.866;7.986;2023-02-01T05:41:17;100681.97;;;6.97;100.00
4346;BME280;2186;49.866;7.986;2023-02-01T05:43:47;100699.63;;;6.92;100.00
4346;BME280;2186;49.866;7.986;2023-02-01T05:46:14;100708.38;;;7.01;100.00
4346;BME280;2186;49.866;7.986;2023-02-01T05:48:42;100700.47;;;6.97;100.00
4346;BME280;2186;49.866;7.986;2023-02-01T05:51:10;100702.38;;;6.78;100.00
4346;BME280;2186;49.866;7.986;2023-02-01T05:53:37;100699.50;;;7.07;100.00
4346;BME280;2186;49.866;7.986;2023-02-01T05:56:03;100701.41;;;6.85;100.00
4346;BME280;2186;49.866;7.986;2023-02-01T05:58:30;100705.72;;;7.03;100.00
4346;BME280;2186;49.866;7.986;2023-02-01T06:00:59;100703.94;;;7.05;100.00
4346;BME280;2186;49.866;7.986;2023-02-01T06:03:26;100712.81;;;6.99;100.00
4346;BME280;2186;49.866;7.986;2023-02-01T06:05:53;100700.47;;;6.97;100.00
4346;BME280;2186;49.866;7.986;2023-02-01T06:08:19;100708.31;;;7.07;100.00
4346;BME280;2186;49.866;7.986;2023-02-01T06:10:46;100712.69;;;7.10;100.00
4346;BME280;2186;49.866;7.986;2023-02-01T06:13:13;100725.94;;;7.07;100.00
4346;BME280;2186;49.866;7.986;2023-02-01T06:15:39;100707.63;;;6.86;100.00
4346;BME280;2186;49.866;7.986;2023-02-01T06:18:08;100705.75;;;7.00;100.00
4346;BME280;2186;49.866;7.986;2023-02-01T06:20:35;100706.69;;;6.90;100.00
4346;BME280;2186;49.866;7.986;2023-02-01T06:23:01;100703.31;;;6.68;100.00
4346;BME280;2186;49.866;7.986;2023-02-01T06:25:27;100703.28;;;6.72;100.00
4346;BME280;2186;49.866;7.986;2023-02-01T06:27:54;100707.69;;;6.69;100.00
4346;BME280;2186;49.866;7.986;2023-02-01T06:30:20;100710.25;;;6.82;100.00
4346;BME280;2186;49.866;7.986;2023-02-01T06:32:50;100712.84;;;6.92;100.00
4346;BME280;2186;49.866;7.986;2023-02-01T06:35:19;100710.34;;;6.69;100.00
4346;BME280;2186;49.866;7.986;2023-02-01T06:37:46;100708.63;;;6.63;100.00
4346;BME280;2186;49.866;7.986;2023-02-01T06:40:13;100716.53;;;6.66;100.00
4346;BME280;2186;49.866;7.986;2023-02-01T06:42:39;100706.88;;;6.62;100.00
4346;BME280;2186;49.866;7.986;2023-02-01T06:45:06;100703.41;;;6.52;100.00
4346;BME280;2186;49.866;7.986;2023-02-01T06:47:33;100694.47;;;6.73;100.00
4346;BME280;2186;49.866;7.986;2023-02-01T06:49:59;100694.47;;;6.70;100.00
4346;BME280;2186;49.866;7.986;2023-02-01T06:52:26;100691.00;;;6.64;100.00
4346;BME280;2186;49.866;7.986;2023-02-01T06:54:52;100688.41;;;6.61;100.00
4346;BME280;2186;49.866;7.986;2023-02-01T06:57:18;100698.00;;;6.69;100.00
4346;BME280;2186;49.866;7.986;2023-02-01T06:59:45;100703.28;;;6.71;100.00
4346;BME280;2186;49.866;7.986;2023-02-01T07:02:11;100700.63;;;6.77;100.00
4346;BME280;2186;49.866;7.986;2023-02-01T07:04:38;100698.88;;;6.73;100.00
4346;BME280;2186;49.866;7.986;2023-02-01T07:07:04;100698.91;;;6.67;100.00
4346;BME280;2186;49.866;7.986;2023-02-01T07:09:31;100700.66;;;6.72;100.00
4346;BME280;2186;49.866;7.986;2023-02-01T07:11:57;100705.91;;;6.77;100.00
4346;BME280;2186;49.866;7.986;2023-02-01T07:14:23;100708.63;;;6.62;100.00
4346;BME280;2186;49.866;7.986;2023-02-01T07:16:50;100719.19;;;6.63;100.00
4346;BME280;2186;49.866;7.986;2023-02-01T07:19:17;100723.53;;;6.75;99.84
4346;BME280;2186;49.866;7.986;2023-02-01T07:21:43;100729.69;;;6.69;100.00
4346;BME280;2186;49.866;7.986;2023-02-01T07:24:09;100712.94;;;6.76;100.00
4346;BME280;2186;49.866;7.986;2023-02-01T07:26:36;100718.34;;;6.60;100.00
4346;BME280;2186;49.866;7.986;2023-02-01T07:29:02;100714.75;;;6.73;98.73
4346;BME280;2186;49.866;7.986;2023-02-01T07:31:29;100718.16;;;6.89;98.93
4346;BME280;2186;49.866;7.986;2023-02-01T07:33:55;100723.53;;;6.73;98.45
4346;BME280;2186;49.866;7.986;2023-02-01T07:36:24;100728.75;;;6.82;98.19
4346;BME280;2186;49.866;7.986;2023-02-01T07:38:50;100738.53;;;6.67;98.69
4346;BME280;2186;49.866;7.986;2023-02-01T07:41:21;100737.59;;;6.77;98.29
4346;BME280;2186;49.866;7.986;2023-02-01T07:43:47;100739.38;;;6.75;97.85
4346;BME280;2186;49.866;7.986;2023-02-01T07:46:14;100742.03;;;6.69;98.49
4346;BME280;2186;49.866;7.986;2023-02-01T07:48:42;100740.34;;;6.57;98.99
4346;BME280;2186;49.866;7.986;2023-02-01T07:51:11;100749.91;;;6.78;98.10
4346;BME280;2186;49.866;7.986;2023-02-01T07:53:38;100746.44;;;6.74;99.05
4346;BME280;2186;49.866;7.986;2023-02-01T07:56:11;100757.78;;;6.84;97.73
4346;BME280;2186;49.866;7.986;2023-02-01T07:58:38;100753.47;;;6.71;98.63
4346;BME280;2186;49.866;7.986;2023-02-01T08:01:05;100759.63;;;6.76;98.21
4346;BME280;2186;49.866;7.986;2023-02-01T08:03:49;100758.69;;;6.81;97.73
4346;BME280;2186;49.866;7.986;2023-02-01T08:06:15;100748.91;;;6.97;97.74
4346;BME280;2186;49.866;7.986;2023-02-01T08:08:42;100760.34;;;7.04;97.09
4346;BME280;2186;49.866;7.986;2023-02-01T08:11:11;100762.16;;;6.94;97.11
4346;BME280;2186;49.866;7.986;2023-02-01T08:13:37;100756.97;;;6.79;97.86
4346;BME280;2186;49.866;7.986;2023-02-01T08:16:06;100749.78;;;6.98;97.05
4346;BME280;2186;49.866;7.986;2023-02-01T08:18:34;100749.00;;;6.83;96.07
4346;BME280;2186;49.866;7.986;2023-02-01T08:21:08;100756.81;;;7.02;96.51
4346;BME280;2186;49.866;7.986;2023-02-01T08:23:36;100767.34;;;7.08;95.88
4346;BME280;2186;49.866;7.986;2023-02-01T08:26:10;100758.59;;;7.00;95.41
4346;BME280;2186;49.866;7.986;2023-02-01T08:28:39;100763.06;;;6.92;94.10
4346;BME280;2186;49.866;7.986;2023-02-01T08:31:11;100762.16;;;6.94;94.43
4346;BME280;2186;49.866;7.986;2023-02-01T08:33:38;100771.00;;;6.89;94.07
4346;BME280;2186;49.866;7.986;2023-02-01T08:36:06;100769.13;;;7.07;93.96
4346;BME280;2186;49.866;7.986;2023-02-01T08:38:35;100777.09;;;7.00;93.35
4346;BME280;2186;49.866;7.986;2023-02-01T08:41:09;100779.66;;;7.15;93.49
4346;BME280;2186;49.866;7.986;2023-02-01T08:43:36;100774.44;;;7.04;93.12
4346;BME280;2186;49.866;7.986;2023-02-01T08:46:04;100773.38;;;7.25;92.97
4346;BME280;2186;49.866;7.986;2023-02-01T08:48:31;100780.44;;;7.26;92.50
4346;BME280;2186;49.866;7.986;2023-02-01T08:51:04;100783.94;;;7.30;92.15
4346;BME280;2186;49.866;7.986;2023-02-01T08:53:30;100787.41;;;7.36;91.75
4346;BME280;2186;49.866;7.986;2023-02-01T08:55:57;100790.91;;;7.38;92.19
4346;BME280;2186;49.866;7.986;2023-02-01T08:58:24;100791.97;;;7.18;92.14
4346;BME280;2186;49.866;7.986;2023-02-01T09:00:51;100800.72;;;7.27;91.42
4346;BME280;2186;49.866;7.986;2023-02-01T09:03:17;100792.69;;;7.36;91.39
4346;BME280;2186;49.866;7.986;2023-02-01T09:05:44;100790.06;;;7.36;91.94
4346;BME280;2186;49.866;7.986;2023-02-01T09:08:15;100803.28;;;7.36;92.23
4346;BME280;2186;49.866;7.986;2023-02-01T09:10:42;100800.69;;;7.30;91.61
4346;BME280;2186;49.866;7.986;2023-02-01T09:13:08;100797.88;;;7.52;91.77
4346;BME280;2186;49.866;7.986;2023-02-01T09:15:36;100802.22;;;7.59;92.51
4346;BME280;2186;49.866;7.986;2023-02-01T09:18:03;100802.22;;;7.60;91.38
4346;BME280;2186;49.866;7.986;2023-02-01T09:20:29;100807.56;;;7.56;90.70
4346;BME280;2186;49.866;7.986;2023-02-01T09:22:56;100802.19;;;7.62;90.80
4346;BME280;2186;49.866;7.986;2023-02-01T09:25:22;100817.16;;;7.69;89.53
4346;BME280;2186;49.866;7.986;2023-02-01T09:27:49;100821.38;;;7.88;89.78
4346;BME280;2186;49.866;7.986;2023-02-01T09:30:15;100827.63;;;7.81;89.85
4346;BME280;2186;49.866;7.986;2023-02-01T09:32:42;100839.06;;;7.83;89.99
4346;BME280;2186;49.866;7.986;2023-02-01T09:35:08;100846.75;;;8.12;90.04
4346;BME280;2186;49.866;7.986;2023-02-01T09:37:35;100847.91;;;7.79;90.21
4346;BME280;2186;49.866;7.986;2023-02-01T09:40:04;100851.34;;;7.92;90.15
4346;BME280;2186;49.866;7.986;2023-02-01T09:48:05;100855.75;;;7.91;89.36
4346;BME280;2186;49.866;7.986;2023-02-01T09:50:38;100853.09;;;7.91;88.56
4346;BME280;2186;49.866;7.986;2023-02-01T09:53:27;100864.47;;;8.02;89.30
4346;BME280;2186;49.866;7.986;2023-02-01T09:56:02;100863.63;;;7.99;89.38
4346;BME280;2186;49.866;7.986;2023-02-01T09:58:42;100870.47;;;8.21;89.06
4346;BME280;2186;49.866;7.986;2023-02-01T10:01:29;100868.84;;;8.07;88.75
4346;BME280;2186;49.866;7.986;2023-02-01T10:04:02;100865.28;;;8.14;87.63
4346;BME280;2186;49.866;7.986;2023-02-01T10:06:40;100859.25;;;7.96;87.70
4346;BME280;2186;49.866;7.986;2023-02-01T10:09:38;100869.78;;;8.02;88.38
4346;BME280;2186;49.866;7.986;2023-02-01T10:12:33;100859.31;;;7.87;87.79
4346;BME280;2186;49.866;7.986;2023-02-01T10:18:22;100859.97;;;8.14;87.19
4346;BME280;2186;49.866;7.986;2023-02-01T10:24:44;100852.00;;;8.17;87.44
4346;BME280;2186;49.866;7.986;2023-02-01T10:26:48;100854.59;;;8.24;87.04
4346;BME280;2186;49.866;7.986;2023-02-01T10:29:23;100861.53;;;8.39;86.83
4346;BME280;2186;49.866;7.986;2023-02-01T10:31:51;100857.25;;;8.20;86.73
4346;BME280;2186;49.866;7.986;2023-02-01T10:34:31;100847.53;;;8.20;86.70
4346;BME280;2186;49.866;7.986;2023-02-01T10:39:46;100843.03;;;8.36;86.93
4346;BME280;2186;49.866;7.986;2023-02-01T10:42:16;100843.03;;;8.36;87.09
4346;BME280;2186;49.866;7.986;2023-02-01T10:44:44;100823.69;;;8.22;87.23
4346;BME280;2186;49.866;7.986;2023-02-01T10:47:14;100821.97;;;8.18;86.12
4346;BME280;2186;49.866;7.986;2023-02-01T10:50:11;100817.66;;;8.09;86.41
4346;BME280;2186;49.866;7.986;2023-02-01T10:52:55;100824.63;;;8.18;87.10
4346;BME280;2186;49.866;7.986;2023-02-01T10:55:27;100825.41;;;8.27;86.82
4346;BME280;2186;49.866;7.986;2023-02-01T10:57:59;100819.41;;;8.10;87.33
4346;BME280;2186;49.866;7.986;2023-02-01T11:00:26;100818.50;;;8.13;86.85
4346;BME280;2186;49.866;7.986;2023-02-01T11:02:54;100809.53;;;8.26;87.18
4346;BME280;2186;49.866;7.986;2023-02-01T11:05:20;100815.88;;;8.11;86.94
4346;BME280;2186;49.866;7.986;2023-02-01T11:07:50;100808.88;;;8.02;86.56
4346;BME280;2186;49.866;7.986;2023-02-01T11:10:40;100814.94;;;8.15;87.35
4346;BME280;2186;49.866;7.986;2023-02-01T11:13:18;100792.00;;;8.16;87.18
4346;BME280;2186;49.866;7.986;2023-02-01T11:15:46;100787.56;;;8.16;87.92
4346;BME280;2186;49.866;7.986;2023-02-01T11:18:24;100791.13;;;8.14;87.59
4346;BME280;2186;49.866;7.986;2023-02-01T11:20:53;100791.91;;;8.25;87.49
4346;BME280;2186;49.866;7.986;2023-02-01T11:23:23;100788.25;;;8.38;87.38
4346;BME280;2186;49.866;7.986;2023-02-01T11:25:59;100787.41;;;8.36;85.96
4346;BME280;2186;49.866;7.986;2023-02-01T11:28:31;100788.19;;;8.43;86.62
4346;BME280;2186;49.866;7.986;2023-02-01T11:31:02;100800.63;;;8.38;85.30
4346;BME280;2186;49.866;7.986;2023-02-01T11:33:31;100797.09;;;8.36;86.14
4346;BME280;2186;49.866;7.986;2023-02-01T11:36:07;100802.31;;;8.42;85.72
4346;BME280;2186;49.866;7.986;2023-02-01T11:38:34;100805.94;;;8.36;86.47
4346;BME280;2186;49.866;7.986;2023-02-01T11:41:19;100792.59;;;8.42;86.26
4346;BME280;2186;49.866;7.986;2023-02-01T11:44:00;100807.59;;;8.43;86.24
4346;BME280;2186;49.866;7.986;2023-02-01T11:46:32;100811.97;;;8.50;85.82
4346;BME280;2186;49.866;7.986;2023-02-01T11:49:19;100801.50;;;8.33;85.97
4346;BME280;2186;49.866;7.986;2023-02-01T11:57:42;100800.75;;;8.24;86.18
4346;BME280;2186;49.866;7.986;2023-02-01T12:00:30;100789.06;;;8.43;84.85
4346;BME280;2186;49.866;7.986;2023-02-01T12:03:25;100793.41;;;8.47;84.53
4346;BME280;2186;49.866;7.986;2023-02-01T12:06:25;100783.84;;;8.34;84.40
4346;BME280;2186;49.866;7.986;2023-02-01T12:25:58;100750.94;;;8.56;84.23
4346;BME280;2186;49.866;7.986;2023-02-01T12:36:58;100747.66;;;8.33;84.10
4346;BME280;2186;49.866;7.986;2023-02-01T12:39:40;100745.69;;;8.53;83.73
4346;BME280;2186;49.866;7.986;2023-02-01T12:42:30;100726.16;;;8.59;83.82
4346;BME280;2186;49.866;7.986;2023-02-01T12:50:53;100713.00;;;8.53;84.13
4346;BME280;2186;49.866;7.986;2023-02-01T12:53:38;100718.34;;;8.51;84.15
4346;BME280;2186;49.866;7.986;2023-02-01T12:56:12;100718.28;;;8.54;83.65
4346;BME280;2186;49.866;7.986;2023-02-01T12:58:48;100714.69;;;8.58;83.67
4346;BME280;2186;49.866;7.986;2023-02-01T13:09:27;100704.97;;;8.57;84.26
4346;BME280;2186;49.866;7.986;2023-02-01T13:12:00;100701.34;;;8.63;83.79
4346;BME280;2186;49.866;7.986;2023-02-01T13:14:40;100714.59;;;8.66;83.70
4346;BME280;2186;49.866;7.986;2023-02-01T13:17:34;100698.81;;;8.57;82.39
4346;BME280;2186;49.866;7.986;2023-02-01T13:20:19;100700.59;;;8.56;82.74
4346;BME280;2186;49.866;7.986;2023-02-01T13:22:54;100685.63;;;8.52;83.04
4346;BME280;2186;49.866;7.986;2023-02-01T13:28:00;100693.41;;;8.65;82.87
4346;BME280;2186;49.866;7.986;2023-02-01T13:30:38;100701.38;;;8.61;82.99
4346;BME280;2186;49.866;7.986;2023-02-01T13:33:36;100704.00;;;8.63;82.66
4346;BME280;2186;49.866;7.986;2023-02-01T13:42:02;100693.19;;;8.80;82.24
4346;BME280;2186;49.866;7.986;2023-02-01T13:44:34;100680.81;;;8.80;82.60
4346;BME280;2186;49.866;7.986;2023-02-01T13:47:21;100693.34;;;8.69;81.95
4346;BME280;2186;49.866;7.986;2023-02-01T13:49:50;100695.97;;;8.71;82.02
4346;BME280;2186;49.866;7.986;2023-02-01T13:52:27;100694.00;;;8.85;81.72
4346;BME280;2186;49.866;7.986;2023-02-01T13:55:15;100697.63;;;8.79;81.24
4346;BME280;2186;49.866;7.986;2023-02-01T13:57:43;100709.00;;;8.86;81.26
4346;BME280;2186;49.866;7.986;2023-02-01T14:00:24;100705.38;;;8.90;81.34
4346;BME280;2186;49.866;7.986;2023-02-01T14:21:25;100691.19;;;8.96;82.31
4346;BME280;2186;49.866;7.986;2023-02-01T14:28:54;100689.19;;;9.10;81.47
4346;BME280;2186;49.866;7.986;2023-02-01T14:31:32;100699.94;;;9.01;81.22
4346;BME280;2186;49.866;7.986;2023-02-01T14:34:02;100691.75;;;9.14;81.19
4346;BME280;2186;49.866;7.986;2023-02-01T14:36:47;100693.28;;;9.29;80.50
4346;BME280;2186;49.866;7.986;2023-02-01T14:39:27;100691.56;;;9.27;79.88
4346;BME280;2186;49.866;7.986;2023-02-01T14:41:59;100685.41;;;9.25;80.17
4346;BME280;2186;49.866;7.986;2023-02-01T14:44:33;100686.13;;;9.34;79.83
4346;BME280;2186;49.866;7.986;2023-02-01T14:47:26;100681.91;;;9.23;79.20
4346;BME280;2186;49.866;7.986;2023-02-01T14:49:58;100675.91;;;9.11;79.60
4346;BME280;2186;49.866;7.986;2023-02-01T14:52:33;100675.69;;;9.24;79.54
4346;BME280;2186;49.866;7.986;2023-02-01T14:55:05;100670.06;;;9.42;79.09
4346;BME280;2186;49.866;7.986;2023-02-01T14:57:35;100675.44;;;9.39;78.93
4346;BME280;2186;49.866;7.986;2023-02-01T15:00:17;100669.75;;;9.59;78.66
4346;BME280;2186;49.866;7.986;2023-02-01T15:02:46;100666.88;;;9.71;78.66
4346;BME280;2186;49.866;7.986;2023-02-01T15:05:23;100672.59;;;9.49;78.79
4346;BME280;2186;49.866;7.986;2023-02-01T15:07:51;100677.66;;;9.63;78.83
4346;BME280;2186;49.866;7.986;2023-02-01T15:10:19;100680.41;;;9.57;78.80
4346;BME280;2186;49.866;7.986;2023-02-01T15:12:47;100677.97;;;9.45;78.50
4346;BME280;2186;49.866;7.986;2023-02-01T15:15:22;100681.22;;;9.62;78.18
4346;BME280;2186;49.866;7.986;2023-02-01T15:17:58;100687.56;;;9.52;78.02
4346;BME280;2186;49.866;7.986;2023-02-01T15:20:28;100683.88;;;9.62;78.65
4346;BME280;2186;49.866;7.986;2023-02-01T15:23:01;100676.84;;;9.58;78.25
4346;BME280;2186;49.866;7.986;2023-02-01T15:25:36;100696.50;;;9.48;78.76
4346;BME280;2186;49.866;7.986;2023-02-01T15:28:05;100685.81;;;9.51;78.91
4346;BME280;2186;49.866;7.986;2023-02-01T15:30:35;100694.75;;;9.47;78.80
4346;BME280;2186;49.866;7.986;2023-02-01T15:35:48;100690.34;;;9.46;79.18
4346;BME280;2186;49.866;7.986;2023-02-01T15:41:00;100692.81;;;9.55;78.65